Riviere-du-Loup, Canada
Current Conditions -  °F | °C
As of 7:53 AM on Thursday 30 Oct 2014 (Local Time) from KFVE Reporting Station
Clear Clear  
Wind Chill: 31°   Ceiling: Unl
Heat Index: 38°   Visibility: 10mi
Dew Point: 31°   Wind: 10mph
Humidity: 76%   Direction: 330°NNW
Pressure: 29.76"   Gusts: NA
Location:  47.84°N, 69.54°W
Report Text: KFVE 301153Z AUTO 33009KT 10SM CLR 03/M01 A2976 RMK AO2 SLP081 70004 T00331006 10056 20033 51017
Loading
Personal Weather Stations






























Interactive Weather Map
Tropical Storm Tracking
New forecast layout! Learn more

10-Day Weather Forecast

Advertisements
Track Severe Weather on mobile